Latest Weather Observations for Wilsons Promontory

IDV60801

Issued at 7:04 pm EDT Friday 27 March 2015 (issued every 30 minutes, with the page automatically refreshed every 10 minutes)

About weather observations | Map of weather stations | Latest weather observations for VIC | Other Formats
Station Details ID: 085096 Name: WILSONS PROMONTORY LIGHTHOUSE Lat: -39.13 Lon: 146.42 Height: 95.0 m
Data from the previous 72 hours. | See also: Recent months at Wilsons Promontory
Date/Time
EDT
Temp
°C
App
Temp
°C
Dew
Point
Rel
Hum
%
Delta-T
°C
Wind Press
QNH
hPa
Press
MSL
hPa
Rain
since 9 am
mm
Dir
 
Spd
km/h
Gust
km/h
Spd
kts
Gust
kts
27/07:00pm 14.7 3.6 11.5 81 1.7 WSW 61 82 33 44 1018.2 - 1.0
27/06:30pm 14.8 3.3 11.6 81 1.7 W 63 91 34 49 1017.5 - 1.0
27/06:00pm 14.9 2.4 12.0 83 1.6 WSW 69 89 37 48 1017.2 1017.0 1.0
27/05:30pm 14.8 3.0 11.8 82 1.6 W 65 89 35 48 1016.6 - 1.0
27/05:00pm 15.0 1.9 12.0 82 1.6 WSW 72 91 39 49 1016.6 - 1.0
27/04:31pm 14.9 0.2 11.5 80 1.8 WSW 80 100 43 54 1016.3 - 1.0
27/04:30pm 15.0 -0.3 11.6 80 1.8 WSW 83 100 45 54 1016.3 - 1.0
27/04:11pm 15.0 -0.2 11.8 81 1.7 WSW 83 102 45 55 1016.0 - 1.0
27/04:07pm 14.8 -1.6 11.6 81 1.7 WSW 89 102 48 55 1015.5 - 1.0
27/04:00pm 15.2 4.0 12.3 83 1.6 WSW 63 87 34 47 1016.4 - 1.0
27/03:30pm 15.1 3.6 12.6 85 1.4 W 65 87 35 47 1016.0 - 1.0
27/03:00pm 15.0 3.9 12.9 87 1.2 W 63 83 34 45 1016.1 1016.0 1.0
27/02:30pm 15.0 3.1 12.7 86 1.3 WSW 67 91 36 49 1015.8 - 1.0
27/02:00pm 14.8 2.9 12.8 88 1.1 W 67 87 36 47 1015.8 - 1.0
27/01:30pm 14.5 1.7 12.9 90 0.9 WSW 72 98 39 53 1015.3 - 1.0
27/01:00pm 13.8 1.3 12.7 93 0.6 W 70 98 38 53 1015.6 - 1.0
27/12:43pm 14.5 0.8 12.5 88 1.1 WSW 76 111 41 60 1014.8 - 0.6
27/12:30pm 14.5 3.9 13.0 91 0.8 W 61 91 33 49 1015.7 - 0.6
27/12:00pm 14.2 2.0 12.8 91 0.8 W 69 91 37 49 1015.2 1015.0 0.4
27/11:30am 13.5 0.0 11.7 89 1.0 WSW 74 96 40 52 1015.1 - 0.2
27/11:00am 14.3 2.3 12.2 87 1.1 WSW 67 91 36 49 1014.9 - 0.0
27/10:30am 14.7 3.0 10.9 78 2.0 WSW 63 87 34 47 1015.4 - 0.0
27/10:25am 14.7 3.7 10.7 77 2.1 WSW 59 82 32 44 1014.9 - 0.0
27/10:00am 14.6 1.5 10.0 74 2.4 WSW 69 85 37 46 1014.7 - 0.0
27/09:30am 14.2 -0.2 10.0 76 2.2 SW 76 87 41 47 1014.5 - 0.0
27/09:00am 13.9 -0.2 9.5 75 2.3 WSW 74 98 40 53 1013.7 1013.5 13.2
27/08:49am 13.9 -2.4 9.3 74 2.4 WSW 85 104 46 56 1013.6 - 13.2
27/08:30am 13.7 -4.3 9.9 78 2.0 WSW 95 109 51 59 1012.6 - 13.2
27/08:21am 13.6 -4.6 9.8 78 2.0 WSW 96 109 52 59 1012.2 - 13.2
27/08:00am 13.6 -6.6 9.6 77 2.1 WSW 106 126 57 68 1010.1 - 13.2
27/07:52am 13.7 -6.4 9.9 78 2.0 WSW 106 126 57 68 1010.2 - 13.2
27/07:48am 13.8 -6.2 10.2 79 1.9 WSW 106 130 57 70 1010.0 - 13.2
27/07:46am 13.7 -1.9 10.3 80 1.8 WSW 83 130 45 70 1010.6 - 13.2
27/07:44am 13.9 -1.7 10.5 80 1.8 WSW 83 130 45 70 1010.4 - 13.2
27/07:30am 14.1 -5.4 10.9 81 1.7 WSW 104 135 56 73 1009.0 - 13.2
27/07:22am 13.9 -5.9 11.8 87 1.1 WSW 107 135 58 73 1008.6 - 13.2
27/07:21am 14.1 -4.2 12.3 89 1.0 WSW 100 117 54 63 1008.9 - 13.2
27/07:00am 13.1 -1.0 12.2 94 0.5 W 78 113 42 61 1010.3 - 13.2
27/06:44am 12.8 -2.4 11.7 93 0.6 W 83 106 45 57 1009.6 - 13.2
27/06:30am 13.1 2.7 11.5 90 0.9 W 57 89 31 48 1010.8 - 10.4
27/06:20am 13.2 2.5 11.6 90 0.9 W 59 102 32 55 1010.7 - 10.2
27/06:00am 12.6 2.3 11.2 91 0.7 W 56 83 30 45 1011.3 1011.1 10.0
27/05:30am 12.1 1.7 10.5 90 0.8 W 56 80 30 43 1012.0 - 9.0
27/05:16am 12.4 2.4 10.8 90 0.8 W 54 82 29 44 1011.7 - 8.4
27/05:03am 12.1 -2.0 9.8 86 1.2 W 74 95 40 51 1011.1 - 7.2
27/05:01am 12.0 -3.4 9.2 83 1.4 WSW 80 95 43 51 1010.5 - 6.6
27/05:00am 12.4 0.7 9.2 81 1.6 W 61 93 33 50 1011.0 - 5.8
27/04:49am 13.1 4.3 9.5 79 1.8 W 46 85 25 46 1011.6 - 5.6
27/04:30am 13.5 5.3 9.6 77 2.0 W 43 63 23 34 1012.2 - 5.4
27/04:11am 13.4 3.6 10.0 80 1.8 W 52 72 28 39 1012.0 - 5.4
27/04:09am 13.8 5.0 10.8 82 1.6 W 48 76 26 41 1011.9 - 5.4
27/04:00am 13.7 1.0 11.2 85 1.3 WSW 69 87 37 47 1011.5 - 5.4
27/03:48am 13.8 2.0 11.7 87 1.1 WSW 65 83 35 45 1011.7 - 5.4
27/03:38am 13.4 0.5 11.1 86 1.2 SW 70 80 38 43 1011.4 - 5.4
27/03:30am 13.3 4.2 11.2 87 1.1 W 50 69 27 37 1011.8 - 5.4
27/03:13am 13.0 3.2 11.4 90 0.9 W 54 80 29 43 1011.7 - 5.4
27/03:09am 12.7 2.9 11.3 91 0.7 W 54 89 29 48 1011.9 - 5.4
27/03:01am 12.3 -2.2 10.9 91 0.7 WSW 78 96 42 52 1011.1 - 5.4
27/03:00am 12.8 -2.0 11.4 91 0.7 SW 80 96 43 52 1011.1 1010.9 5.4
27/02:58am 12.8 3.7 11.4 91 0.7 W 50 91 27 49 1011.9 - 5.4
27/02:37am 12.6 4.6 11.2 91 0.7 W 44 65 24 35 1011.9 - 5.2
27/02:30am 12.3 3.4 10.7 90 0.8 W 48 65 26 35 1012.2 - 5.0
27/02:13am 11.7 1.8 9.8 88 1.0 W 52 89 28 48 1011.9 - 5.0
27/02:11am 12.0 -1.3 9.9 87 1.1 WSW 70 89 38 48 1011.3 - 4.0
27/02:09am 12.8 -1.0 10.7 87 1.1 WSW 74 89 40 48 1011.0 - 3.4
27/02:08am 13.0 4.2 10.9 87 1.1 WSW 48 87 26 47 1011.4 - 3.4
27/02:00am 13.0 5.8 10.5 85 1.3 W 39 57 21 31 1012.4 - 3.2
27/01:40am 12.4 6.2 10.1 86 1.2 W 33 52 18 28 1012.6 - 3.2
27/01:30am 12.1 3.7 9.5 84 1.3 W 44 56 24 30 1012.6 - 3.2
27/01:01am 13.2 4.9 10.2 82 1.6 W 44 63 24 34 1012.5 - 2.4
27/01:00am 13.0 4.3 9.8 81 1.6 W 46 63 25 34 1012.4 - 2.4
27/12:41am 13.4 5.3 10.0 80 1.8 W 43 67 23 36 1012.1 - 2.4
27/12:40am 13.4 6.0 10.0 80 1.8 W 39 57 21 31 1012.2 - 2.4
27/12:32am 12.9 1.5 9.2 78 1.9 WSW 59 78 32 42 1011.9 - 2.4
27/12:30am 13.2 1.0 9.1 76 2.1 WSW 63 78 34 42 1011.7 - 2.2
27/12:27am 13.7 0.5 9.6 76 2.1 WSW 69 78 37 42 1011.6 - 2.2
27/12:00am 13.5 5.0 9.2 75 2.2 W 44 67 24 36 1011.9 1011.7 2.2
 
Date/Time
EDT
Temp
°C
App
Temp
°C
Dew
Point
Rel
Hum
%
Delta-T
°C
Wind Press
QNH
hPa
Press
MSL
hPa
Rain
since 9 am
mm
Dir
 
Spd
km/h
Gust
km/h
Spd
kts
Gust
kts
26/11:32pm 13.5 2.8 9.4 76 2.1 W 56 80 30 43 1011.5 - 2.2
26/11:30pm 13.5 2.8 9.4 76 2.1 W 56 70 30 38 1011.5 - 2.2
26/11:00pm 13.6 4.8 9.6 77 2.1 W 46 72 25 39 1011.6 - 2.2
26/10:30pm 13.5 3.2 9.7 78 2.0 W 54 74 29 40 1011.3 - 2.2
26/10:00pm 13.5 1.1 9.6 77 2.0 W 65 102 35 55 1010.4 - 2.0
26/09:55pm 13.0 -1.3 8.9 76 2.1 W 74 102 40 55 1009.9 - 2.0
26/09:30pm 13.5 4.4 11.2 86 1.2 W 50 89 27 48 1010.0 - 2.0
26/09:25pm 12.8 5.7 10.9 88 1.0 W 39 78 21 42 1010.4 - 2.0
26/09:01pm 12.3 7.0 10.0 86 1.2 NW 28 56 15 30 1010.4 - 2.0
26/09:00pm 12.2 7.3 9.9 86 1.2 NW 26 56 14 30 1010.4 1010.2 2.0
26/08:30pm 12.1 6.5 8.6 79 1.7 NNW 28 80 15 43 1010.3 - 1.2
26/08:23pm 12.2 3.7 8.5 78 1.8 NW 43 87 23 47 1009.8 - 1.2
26/08:00pm 12.3 4.8 8.0 75 2.1 NNW 37 78 20 42 1010.0 - 1.0
26/07:30pm 11.6 3.4 6.7 72 2.3 N 39 70 21 38 1011.0 - 1.0
26/07:00pm 11.7 3.2 7.0 73 2.3 NNW 41 72 22 39 1011.4 - 0.8
26/06:33pm 12.2 3.7 7.1 71 2.5 NNW 41 98 22 53 1011.4 - 0.6
26/06:30pm 12.0 4.3 7.1 72 2.4 NNW 37 72 20 39 1011.9 - 0.6
26/06:23pm 12.2 5.2 6.9 70 2.6 NNW 33 72 18 39 1012.0 - 0.6
26/06:19pm 12.6 6.6 6.9 68 2.8 N 28 50 15 27 1012.0 - 0.6
26/06:00pm 14.6 9.9 5.9 56 4.2 NW 20 54 11 29 1011.8 1011.6 0.4
26/05:40pm 15.2 7.3 4.3 48 5.1 NW 35 56 19 30 1011.7 - 0.4
26/05:30pm 15.5 10.7 4.8 49 5.1 N 19 28 10 15 1012.0 - 0.4
26/05:00pm 15.6 12.0 4.9 49 5.1 NNE 13 30 7 16 1012.2 - 0.4
26/04:30pm 15.9 12.7 4.9 48 5.2 NNE 11 30 6 16 1012.4 - 0.4
26/04:00pm 15.7 10.0 4.7 48 5.2 NW 24 63 13 34 1012.8 - 0.4
26/03:47pm 15.6 9.3 5.5 51 4.8 WNW 28 69 15 37 1012.7 - 0.4
26/03:45pm 15.6 11.4 5.5 51 4.8 ENE 17 69 9 37 1013.0 - 0.4
26/03:30pm 15.2 7.2 5.7 53 4.6 W 37 65 20 35 1012.8 - 0.4
26/03:00pm 15.1 5.9 5.3 52 4.7 W 43 80 23 43 1012.6 1012.4 0.4
26/02:30pm 14.9 7.1 6.7 58 4.0 W 37 70 20 38 1013.3 - 0.4
26/02:00pm 14.4 6.2 6.5 59 3.8 W 39 69 21 37 1013.6 - 0.4
26/01:30pm 13.8 5.4 7.3 65 3.2 W 41 65 22 35 1013.6 - 0.4
26/01:00pm 12.6 4.3 7.7 72 2.4 WNW 41 76 22 41 1014.2 - 0.4
26/12:30pm 13.6 3.9 7.6 67 3.0 WNW 48 83 26 45 1013.9 - 0.4
26/12:00pm 13.0 2.9 7.5 69 2.7 WNW 50 87 27 47 1013.9 1013.7 0.4
26/11:30am 12.5 3.9 8.8 78 1.9 WNW 44 83 24 45 1014.4 - 0.4
26/11:21am 13.0 2.9 8.9 76 2.1 WNW 52 83 28 45 1013.7 - 0.2
26/11:06am 13.1 7.6 9.2 77 2.0 W 28 61 15 33 1014.1 - 0.0
26/11:00am 12.8 8.1 9.1 78 1.9 W 24 63 13 34 1014.2 - 0.0
26/10:48am 12.9 6.7 9.5 80 1.7 NW 32 61 17 33 1014.1 - 0.0
26/10:30am 12.3 8.5 9.0 80 1.7 WSW 19 28 10 15 1014.2 - 0.0
26/10:00am 11.5 5.1 8.7 83 1.4 WSW 32 52 17 28 1014.2 - 0.0
26/09:59am 11.7 5.8 8.9 83 1.4 WSW 30 50 16 27 1014.1 - 0.0
26/09:30am 11.5 6.6 8.5 82 1.5 NNW 24 50 13 27 1014.1 - 0.0
26/09:04am 11.1 5.5 8.7 85 1.2 NNW 28 52 15 28 1014.3 - 0.0
26/09:00am 11.0 6.5 8.6 85 1.2 NNW 22 48 12 26 1014.2 1014.0 3.2
26/08:30am 10.8 4.7 8.4 85 1.2 NNW 30 52 16 28 1014.2 - 3.0
26/08:22am 10.7 4.6 8.3 85 1.2 N 30 56 16 30 1014.2 - 3.0
26/08:00am 10.7 5.4 8.3 85 1.2 NNW 26 41 14 22 1014.1 - 2.8
26/07:37am 10.7 5.0 8.3 85 1.2 NNW 28 52 15 28 1013.4 - 2.8
26/07:30am 10.7 6.1 8.3 85 1.2 NNW 22 43 12 23 1013.7 - 2.8
26/07:00am 10.8 6.2 8.2 84 1.3 NNW 22 35 12 19 1013.6 - 2.8
26/06:30am 11.0 5.4 8.6 85 1.2 WNW 28 57 15 31 1013.5 - 2.6
26/06:23am 11.0 5.4 8.6 85 1.2 W 28 57 15 31 1013.1 - 2.6
26/06:00am 12.5 7.8 9.1 80 1.7 W 24 43 13 23 1013.3 1013.1 1.4
26/05:30am 12.8 5.8 10.0 83 1.4 W 37 52 20 28 1012.7 - 1.2
26/05:22am 12.8 6.6 10.2 84 1.3 W 33 52 18 28 1012.4 - 1.2
26/05:00am 12.7 6.2 10.2 85 1.3 W 35 50 19 27 1012.6 - 1.2
26/04:40am 12.6 7.0 10.1 85 1.3 W 30 52 16 28 1012.6 - 1.2
26/04:30am 13.3 9.7 10.5 83 1.5 W 20 33 11 18 1012.4 - 0.0
26/04:00am 13.9 8.6 9.9 77 2.1 W 28 46 15 25 1012.5 - 0.0
26/03:59am 14.0 8.7 10.0 77 2.1 W 28 46 15 25 1012.6 - 0.0
26/03:30am 15.4 11.2 8.4 63 3.6 WNW 20 39 11 21 1012.4 - 0.0
26/03:00am 15.6 11.8 9.1 65 3.4 N 19 30 10 16 1012.1 1011.9 0.0
26/02:30am 16.0 11.5 9.9 67 3.2 NNW 24 30 13 16 1012.3 - 0.0
26/02:00am 15.9 11.6 12.1 78 2.1 NNW 26 37 14 20 1012.2 - 0.0
26/01:30am 15.6 13.4 13.4 87 1.2 N 17 28 9 15 1012.7 - 0.0
26/01:00am 15.7 11.5 13.5 87 1.2 N 28 44 15 24 1012.7 - 0.0
26/12:30am 15.9 12.1 13.7 87 1.2 NNE 26 43 14 23 1012.6 - 0.0
26/12:00am 15.7 11.9 13.7 88 1.1 NNE 26 37 14 20 1012.9 1012.7 0.0
 
Date/Time
EDT
Temp
°C
App
Temp
°C
Dew
Point
Rel
Hum
%
Delta-T
°C
Wind Press
QNH
hPa
Press
MSL
hPa
Rain
since 9 am
mm
Dir
 
Spd
km/h
Gust
km/h
Spd
kts
Gust
kts
25/11:30pm 15.9 10.4 13.6 86 1.3 NE 35 44 19 24 1013.0 - 0.0
25/11:00pm 16.0 11.1 13.7 86 1.3 NNE 32 41 17 22 1013.6 - 0.0
25/10:30pm 15.9 10.9 13.4 85 1.4 NNE 32 43 17 23 1013.6 - 0.0
25/10:00pm 15.8 10.6 12.9 83 1.6 NNE 32 39 17 21 1013.7 - 0.0
25/09:30pm 15.7 11.3 12.8 83 1.6 NE 28 37 15 20 1013.8 - 0.0
25/09:00pm 15.6 10.7 12.5 82 1.7 NE 30 37 16 20 1013.9 1013.7 0.0
25/08:30pm 15.5 10.5 12.3 81 1.8 NE 30 39 16 21 1013.8 - 0.0
25/08:00pm 15.5 10.5 12.1 80 1.9 NE 30 37 16 20 1013.6 - 0.0
25/07:30pm 15.4 10.6 11.8 79 2.0 NE 28 35 15 19 1013.7 - 0.0
25/07:00pm 15.4 11.0 11.6 78 2.1 NE 26 32 14 17 1013.8 - 0.0
25/06:30pm 15.5 11.4 11.5 77 2.2 NE 24 32 13 17 1013.9 - 0.0
25/06:00pm 15.3 11.5 11.3 77 2.2 NE 22 28 12 15 1013.8 1013.6 0.0
25/05:30pm 15.6 12.2 11.2 75 2.4 NE 20 28 11 15 1014.0 - 0.0
25/05:00pm 15.6 11.7 10.8 73 2.6 NE 22 30 12 16 1013.8 - 0.0
25/04:30pm 15.7 12.1 10.5 71 2.8 NE 20 26 11 14 1013.9 - 0.0
25/04:00pm 16.2 12.8 10.5 69 3.0 NE 19 24 10 13 1014.2 - 0.0
25/03:30pm 16.2 12.8 11.2 72 2.7 NE 20 24 11 13 1014.4 - 0.0
25/03:00pm 15.2 13.3 10.4 73 2.5 NE 11 17 6 9 1015.0 1014.8 0.0
25/02:30pm 15.0 13.7 9.8 71 2.7 ENE 7 13 4 7 1015.6 - 0.0
25/02:00pm 15.6 13.9 9.7 68 3.1 NNE 9 13 5 7 1016.0 - 0.0
25/01:30pm 15.6 13.0 9.5 67 3.2 ENE 13 19 7 10 1016.4 - 0.0
25/01:00pm 15.4 13.1 9.1 66 3.2 ENE 11 17 6 9 1016.7 - 0.0
25/12:30pm 15.9 13.8 9.8 67 3.2 NE 11 15 6 8 1016.9 - 0.0
25/12:00pm 15.9 14.4 8.6 62 3.7 W 6 9 3 5 1017.6 1017.4 0.0
25/11:30am 15.6 14.1 8.4 62 3.7 NNW 6 13 3 7 1017.9 - 0.0
25/11:00am 15.6 13.0 7.9 60 3.9 WSW 11 15 6 8 1017.6 - 0.0
25/10:30am 15.7 13.2 8.2 61 3.8 WSW 11 19 6 10 1017.9 - 0.0
25/10:00am 14.9 10.7 7.5 61 3.7 W 19 26 10 14 1017.8 - 0.0
25/09:30am 14.6 9.9 7.9 64 3.4 W 22 32 12 17 1017.5 - 0.0
25/09:00am 13.9 9.8 7.9 67 3.0 W 19 28 10 15 1017.7 1017.5 0.6
25/08:30am 14.0 7.5 8.0 67 3.0 WSW 32 43 17 23 1017.1 - 0.6
25/08:00am 13.9 8.4 7.7 66 3.1 W 26 33 14 18 1017.3 - 0.6
25/07:30am 13.9 8.5 7.9 67 3.0 WSW 26 33 14 18 1017.4 - 0.6
25/07:00am 13.8 9.7 8.0 68 2.9 W 19 30 10 16 1017.4 - 0.6
25/06:30am 13.9 6.9 8.5 70 2.7 WSW 35 43 19 23 1016.9 - 0.6
25/06:00am 13.8 8.2 8.6 71 2.6 WSW 28 43 15 23 1017.0 1016.8 0.6
25/05:30am 13.8 9.9 8.8 72 2.5 W 19 32 10 17 1017.0 - 0.6
25/05:00am 13.8 8.5 8.4 70 2.7 W 26 37 14 20 1017.1 - 0.6
25/04:30am 13.9 9.7 8.3 69 2.8 W 20 32 11 17 1017.1 - 0.6
25/04:00am 14.0 7.9 8.4 69 2.8 WSW 30 39 16 21 1016.9 - 0.6
25/03:30am 13.8 8.8 8.0 68 2.9 W 24 37 13 20 1016.8 - 0.6
25/03:00am 13.9 7.5 8.7 71 2.6 SW 32 39 17 21 1017.2 1017.0 0.6
25/02:30am 13.9 10.0 8.5 70 2.7 W 19 26 10 14 1017.6 - 0.6
25/02:00am 13.8 9.3 8.4 70 2.7 WSW 22 30 12 16 1017.6 - 0.6
25/01:30am 13.7 9.1 8.3 70 2.7 WSW 22 28 12 15 1017.7 - 0.6
25/01:00am 13.7 9.1 8.3 70 2.7 SW 22 30 12 16 1018.0 - 0.6
25/12:30am 13.7 9.6 8.7 72 2.5 SW 20 32 11 17 1018.1 - 0.6
25/12:00am 13.8 9.4 8.8 72 2.5 SW 22 35 12 19 1018.1 1017.9 0.6
 
Date/Time
EDT
Temp
°C
App
Temp
°C
Dew
Point
Rel
Hum
%
Delta-T
°C
Wind Press
QNH
hPa
Press
MSL
hPa
Rain
since 9 am
mm
Dir
 
Spd
km/h
Gust
km/h
Spd
kts
Gust
kts
24/11:30pm 13.8 9.0 8.8 72 2.5 SW 24 33 13 18 1018.3 - 0.6
24/11:00pm 13.8 9.4 9.0 73 2.4 SW 22 37 12 20 1018.5 - 0.6
24/10:30pm 14.0 10.3 9.4 74 2.4 S 19 39 10 21 1018.4 - 0.6
24/10:00pm 14.0 8.8 8.8 71 2.6 SW 26 46 14 25 1018.4 - 0.6
24/09:34pm 14.0 8.5 9.0 72 2.5 SSW 28 46 15 25 1018.5 - 0.6
24/09:30pm 14.1 8.3 9.3 73 2.5 SW 30 46 16 25 1018.5 - 0.6
24/09:24pm 14.1 8.6 9.3 73 2.5 SW 28 46 15 25 1018.6 - 0.6
24/09:00pm 14.0 9.3 9.4 74 2.4 SW 24 39 13 21 1018.4 1018.2 0.6
24/08:30pm 14.0 10.3 10.0 77 2.1 SW 20 43 11 23 1018.0 - 0.6
24/08:00pm 14.0 10.4 9.8 76 2.2 WSW 19 35 10 19 1017.7 - 0.6
24/07:30pm 14.0 9.9 11.5 85 1.3 SSW 24 41 13 22 1017.3 - 0.6

Other Formats:

Comma delimited format used in spreadsheet applications
http://www.bom.gov.au/fwo/IDV60801/IDV60801.94893.axf

JavaScript Object Notation format (JSON) in row-major order
http://www.bom.gov.au/fwo/IDV60801/IDV60801.94893.json